LFRS 161600Z AUTO 26007KT CAVOK 18/11 Q1018 NOSIG